Time;durP1;ratioP1;P1;durP2;ratioP2;P2;SDS_P1;SDS_P2;PMS_P1;PMS_P2;Temp;Humidity;BMP_temperature;BMP_pressure;BME280_temperature;BME280_humidity;BME280_pressure;Samples;Min_cycle;Max_cycle;Signal;HPM_P1;HPM_P2
2021/09/01 00:00:53;;;;;;;12.32;9.32;;;;;;;22.00;58.70;99990.56;4968832;28;20030;-24
2021/09/01 00:03:18;;;;;;;13.15;10.63;;;;;;;22.23;57.67;99999.66;4968845;28;20414;-24
2021/09/01 00:05:44;;;;;;;13.02;10.40;;;;;;;22.33;57.42;99994.13;4968736;28;20035;-24
2021/09/01 00:08:09;;;;;;;14.68;10.90;;;;;;;22.21;57.42;99997.28;4968780;28;20031;-24
2021/09/01 00:10:35;;;;;;;14.05;10.32;;;;;;;22.38;57.75;100002.16;4968780;28;20034;-24
2021/09/01 00:13:01;;;;;;;13.05;10.10;;;;;;;22.46;57.08;99998.75;4967273;28;20030;-24
2021/09/01 00:15:26;;;;;;;13.80;9.75;;;;;;;22.48;56.23;99978.63;4968622;28;20038;-24
2021/09/01 00:17:52;;;;;;;13.63;10.30;;;;;;;22.15;57.10;99978.63;4967682;28;20027;-24
2021/09/01 00:20:17;;;;;;;17.40;10.35;;;;;;;22.36;56.57;100004.38;4968184;28;20030;-24
2021/09/01 00:22:43;;;;;;;15.93;10.40;;;;;;;22.43;56.93;100010.22;4968510;28;20110;-24
2021/09/01 00:25:09;;;;;;;14.02;10.70;;;;;;;22.57;56.69;100001.28;4968271;28;20061;-24
2021/09/01 00:27:34;;;;;;;13.30;10.18;;;;;;;22.64;56.48;100004.41;4968477;28;20054;-24
2021/09/01 00:30:00;;;;;;;14.00;10.70;;;;;;;22.54;56.77;99993.75;4967098;28;20043;-24
2021/09/01 00:32:25;;;;;;;16.27;10.07;;;;;;;22.55;56.66;100009.72;4968788;28;20043;-24
2021/09/01 00:34:51;;;;;;;15.25;11.45;;;;;;;22.30;57.32;100015.63;4968224;28;20053;-24
2021/09/01 00:37:16;;;;;;;14.13;10.98;;;;;;;21.80;58.70;100002.53;4968222;28;20037;-24
2021/09/01 00:39:42;;;;;;;15.35;10.30;;;;;;;21.84;58.94;100009.81;4967365;28;20038;-24
2021/09/01 00:42:08;;;;;;;14.82;10.65;;;;;;;21.71;59.29;100015.19;4967754;28;20043;-24
2021/09/01 00:44:33;;;;;;;16.83;10.60;;;;;;;21.79;59.02;100019.94;4967077;28;20027;-24
2021/09/01 00:46:59;;;;;;;13.05;10.35;;;;;;;21.23;61.06;100008.75;4968413;28;20035;-24
2021/09/01 00:49:27;;;;;;;14.60;10.07;;;;;;;21.13;61.25;100011.59;4968310;28;20023;-24
2021/09/01 00:51:53;;;;;;;15.80;10.02;;;;;;;20.76;62.68;99994.16;4967085;28;20098;-24
2021/09/01 00:54:22;;;;;;;15.20;10.88;;;;;;;20.95;62.33;100012.38;4968088;28;20039;-24
2021/09/01 00:56:52;;;;;;;14.65;10.90;;;;;;;20.78;62.44;100008.22;4968170;28;20077;-24
2021/09/01 00:59:27;;;;;;;15.88;11.30;;;;;;;21.09;61.52;99996.22;4968427;28;20035;-24
2021/09/01 01:01:53;;;;;;;16.55;10.55;;;;;;;21.01;61.01;99975.97;4968186;28;20479;-24
2021/09/01 01:04:19;;;;;;;17.65;10.98;;;;;;;21.20;60.65;99993.06;4968346;28;20081;-24
2021/09/01 01:06:45;;;;;;;17.25;11.63;;;;;;;21.00;61.75;100002.28;4968276;28;20039;-24
2021/09/01 01:09:10;;;;;;;15.45;10.80;;;;;;;21.42;59.57;99999.84;4968249;28;20030;-24
2021/09/01 01:12:06;;;;;;;14.15;11.25;;;;;;;21.52;58.87;99997.00;4966964;28;20573;-24
2021/09/01 01:14:33;;;;;;;14.35;10.70;;;;;;;21.58;58.61;99990.41;4968028;28;20043;-24
2021/09/01 01:16:58;;;;;;;13.98;10.68;;;;;;;21.86;57.70;100012.22;4968194;28;20039;-24
2021/09/01 01:19:24;;;;;;;15.20;11.13;;;;;;;21.59;58.03;99997.44;4968311;28;20038;-24
2021/09/01 01:21:49;;;;;;;15.90;10.95;;;;;;;21.41;58.90;100017.19;4968237;28;20434;-24
2021/09/01 01:24:15;;;;;;;15.50;10.68;;;;;;;20.88;60.89;99999.13;4967879;28;20035;-24
2021/09/01 01:26:40;;;;;;;15.88;10.65;;;;;;;21.02;60.22;100010.09;4968264;28;20419;-24
2021/09/01 01:29:08;;;;;;;15.48;10.90;;;;;;;20.85;60.24;99989.69;4968528;28;20047;-24
2021/09/01 01:31:36;;;;;;;14.27;10.63;;;;;;;20.83;60.97;100013.56;4972069;28;20059;-24
2021/09/01 01:34:01;;;;;;;14.57;10.93;;;;;;;21.34;59.48;100019.47;4971446;28;20142;-24
2021/09/01 01:36:27;;;;;;;13.55;10.18;;;;;;;21.31;58.86;100011.91;4971727;28;20138;-24
2021/09/01 01:38:52;;;;;;;17.10;11.38;;;;;;;21.10;59.25;100012.16;4971465;28;20097;-24
2021/09/01 01:41:18;;;;;;;15.00;11.63;;;;;;;21.37;58.49;100021.59;4971526;28;20038;-24
2021/09/01 01:43:48;;;;;;;13.18;10.15;;;;;;;21.52;58.15;100016.00;4971197;28;20035;-24
2021/09/01 01:46:13;;;;;;;16.40;10.77;;;;;;;21.28;58.33;100007.88;4971372;28;20041;-24
2021/09/01 01:48:39;;;;;;;15.07;10.77;;;;;;;21.47;58.03;100021.47;4969809;28;20030;-24
2021/09/01 01:51:04;;;;;;;15.07;11.82;;;;;;;21.63;57.14;100012.03;4971372;28;20031;-24
2021/09/01 01:53:30;;;;;;;15.38;11.38;;;;;;;21.62;57.37;100013.13;4971080;28;20554;-24
2021/09/01 01:55:55;;;;;;;16.88;11.55;;;;;;;21.13;58.86;100000.75;4970982;28;20045;-24
2021/09/01 01:58:21;;;;;;;16.17;11.40;;;;;;;20.32;61.62;99981.56;4970875;28;20129;-24
2021/09/01 02:00:46;;;;;;;14.10;10.48;;;;;;;20.69;60.08;99974.72;4971006;28;20062;-24
2021/09/01 02:03:12;;;;;;;15.60;11.20;;;;;;;20.80;60.53;100005.19;4970855;28;20109;-24
2021/09/01 02:05:37;;;;;;;19.38;11.35;;;;;;;20.84;60.30;99998.94;4970954;28;20034;-24
2021/09/01 02:08:03;;;;;;;15.43;11.35;;;;;;;20.13;62.63;99992.31;4970607;28;20070;-24
2021/09/01 02:10:29;;;;;;;16.40;11.02;;;;;;;19.82;63.94;100008.00;4969812;28;20050;-24
2021/09/01 02:12:54;;;;;;;17.63;11.30;;;;;;;19.71;64.51;99999.13;4971087;28;20928;-24
2021/09/01 02:15:20;;;;;;;16.75;11.07;;;;;;;20.44;62.08;100000.16;4970942;28;20082;-24
2021/09/01 02:17:45;;;;;;;16.90;11.65;;;;;;;20.66;61.25;99986.94;4970737;28;20137;-24
2021/09/01 02:20:11;;;;;;;18.90;11.18;;;;;;;20.08;62.96;99995.03;4969039;28;20030;-24
2021/09/01 02:22:37;;;;;;;17.83;11.98;;;;;;;20.62;61.33;99995.94;4970666;28;20066;-24
2021/09/01 02:25:03;;;;;;;14.43;11.25;;;;;;;20.19;62.39;99999.28;4970419;28;20541;-24
2021/09/01 02:27:29;;;;;;;14.05;11.23;;;;;;;20.02;63.63;100015.97;4969317;28;20065;-24
2021/09/01 02:29:54;;;;;;;16.92;11.38;;;;;;;19.89;63.89;100011.16;4970380;28;20407;-24
2021/09/01 02:32:20;;;;;;;17.17;12.18;;;;;;;19.45;64.97;99996.56;4970074;28;20042;-24
2021/09/01 02:34:45;;;;;;;16.88;11.38;;;;;;;19.90;63.78;100011.97;4970478;28;20699;-24
2021/09/01 02:37:11;;;;;;;16.17;11.85;;;;;;;20.41;61.93;100006.94;4970395;28;20073;-24
2021/09/01 02:39:36;;;;;;;16.83;11.57;;;;;;;20.45;61.65;100010.69;4970257;28;20085;-25
2021/09/01 02:42:02;;;;;;;18.65;12.02;;;;;;;20.07;62.92;100012.38;4969154;28;20035;-24
2021/09/01 02:44:28;;;;;;;24.23;11.88;;;;;;;20.42;61.61;100016.69;4970187;28;20118;-25
2021/09/01 02:46:54;;;;;;;16.25;12.27;;;;;;;20.42;61.58;100015.88;4970111;28;20039;-24
2021/09/01 02:49:19;;;;;;;18.70;12.20;;;;;;;20.14;62.58;100025.59;4970319;28;20031;-25
2021/09/01 02:51:45;;;;;;;23.05;13.25;;;;;;;19.78;63.35;100023.19;4969289;28;20031;-25
2021/09/01 02:54:10;;;;;;;18.73;12.07;;;;;;;20.01;62.13;100032.47;4969953;28;20034;-24
2021/09/01 02:56:36;;;;;;;14.27;11.07;;;;;;;19.23;64.63;100007.75;4970070;28;20472;-24
2021/09/01 02:59:01;;;;;;;14.02;10.35;;;;;;;18.80;66.61;100018.19;4970034;28;20506;-25
2021/09/01 03:01:27;;;;;;;15.48;10.40;;;;;;;18.72;67.21;100032.22;4970184;28;20035;-24
2021/09/01 03:03:52;;;;;;;15.75;11.05;;;;;;;19.11;66.03;100033.50;4969826;28;20034;-25
2021/09/01 03:06:17;;;;;;;19.05;10.68;;;;;;;18.99;66.48;100039.22;4970019;28;20046;-24
2021/09/01 03:08:43;;;;;;;15.65;11.18;;;;;;;19.52;64.51;100047.63;4969539;28;20501;-24
2021/09/01 03:11:09;;;;;;;15.07;10.57;;;;;;;19.71;63.54;100042.41;4969638;28;20500;-24
2021/09/01 03:13:34;;;;;;;17.58;11.57;;;;;;;19.44;64.31;100048.22;4969587;28;20045;-24
2021/09/01 03:16:00;;;;;;;17.38;11.85;;;;;;;19.12;65.51;100045.91;4969439;28;20415;-25
2021/09/01 03:18:25;;;;;;;18.88;12.35;;;;;;;19.73;63.88;100045.63;4969418;28;20041;-24
2021/09/01 03:20:51;;;;;;;20.35;11.30;;;;;;;19.98;62.71;100052.81;4969644;28;20392;-24
2021/09/01 03:23:16;;;;;;;21.90;11.38;;;;;;;19.41;64.37;100046.06;4968179;28;20031;-24
2021/09/01 03:25:42;;;;;;;39.65;13.48;;;;;;;19.20;65.35;100051.56;4969011;28;20042;-24
2021/09/01 03:28:07;;;;;;;18.85;11.15;;;;;;;19.42;64.03;100051.19;4969188;28;20062;-24
2021/09/01 03:30:33;;;;;;;17.10;11.88;;;;;;;18.82;66.89;100056.56;4969329;28;20026;-24
2021/09/01 03:32:59;;;;;;;18.80;11.13;;;;;;;18.48;67.59;100043.59;4968619;28;20038;-24
2021/09/01 03:35:24;;;;;;;17.17;11.60;;;;;;;19.40;64.31;100063.38;4968638;28;20554;-24
2021/09/01 03:37:49;;;;;;;18.85;12.32;;;;;;;19.33;63.72;100063.69;4969212;28;20066;-25
2021/09/01 03:40:15;;;;;;;16.27;11.95;;;;;;;19.31;63.45;100051.50;4968877;28;20034;-24
2021/09/01 03:42:41;;;;;;;17.25;11.48;;;;;;;19.15;64.41;100065.09;4969605;28;20157;-24
2021/09/01 03:45:07;;;;;;;14.73;11.75;;;;;;;18.03;67.92;100058.72;4969074;28;20031;-24
2021/09/01 03:47:32;;;;;;;18.50;12.77;;;;;;;17.86;69.18;100058.97;4969045;28;20034;-24
2021/09/01 03:49:58;;;;;;;17.55;12.43;;;;;;;18.14;68.95;100081.13;4968914;28;20034;-24
2021/09/01 03:52:24;;;;;;;17.15;12.45;;;;;;;17.77;70.20;100079.41;4968658;28;20121;-24
2021/09/01 03:54:49;;;;;;;16.17;11.82;;;;;;;17.52;71.13;100095.53;4968804;28;20034;-24
2021/09/01 03:57:15;;;;;;;18.17;12.80;;;;;;;18.08;69.16;100093.00;4968873;28;20486;-24
2021/09/01 03:59:40;;;;;;;17.67;11.80;;;;;;;17.63;70.63;100087.22;4969211;28;20562;-24
2021/09/01 04:02:06;;;;;;;16.55;11.40;;;;;;;17.40;71.06;100093.06;4968654;28;20035;-24
2021/09/01 04:04:32;;;;;;;18.88;11.13;;;;;;;17.12;71.78;100092.41;4969068;28;20435;-24
2021/09/01 04:06:57;;;;;;;17.70;11.02;;;;;;;16.98;72.17;100091.22;4969296;28;20031;-24
2021/09/01 04:09:23;;;;;;;14.45;11.48;;;;;;;16.71;72.51;100088.59;4968618;28;20075;-24
2021/09/01 04:11:48;;;;;;;14.90;11.10;;;;;;;17.49;69.92;100102.28;4968846;28;20038;-24
2021/09/01 04:14:14;;;;;;;19.73;11.73;;;;;;;17.67;69.59;100104.50;4968698;28;20038;-24
2021/09/01 04:16:39;;;;;;;17.33;11.35;;;;;;;17.93;68.81;100098.38;4967250;28;20035;-24
2021/09/01 04:19:05;;;;;;;18.70;12.10;;;;;;;18.06;68.51;100095.97;4968987;28;20042;-24
2021/09/01 04:21:30;;;;;;;17.85;12.15;;;;;;;18.39;67.48;100109.25;4968633;28;20093;-24
2021/09/01 04:23:56;;;;;;;18.13;12.13;;;;;;;18.37;67.74;100112.19;4968507;28;20039;-24
2021/09/01 04:26:22;;;;;;;17.92;12.82;;;;;;;18.45;67.96;100114.38;4968376;28;20058;-24
2021/09/01 04:28:47;;;;;;;19.73;12.80;;;;;;;18.35;67.83;100100.03;4968285;28;20043;-24
2021/09/01 04:31:13;;;;;;;15.60;11.77;;;;;;;18.31;68.15;100107.88;4968508;28;20046;-24
2021/09/01 04:33:38;;;;;;;17.13;11.70;;;;;;;18.69;67.17;100097.59;4968338;28;20038;-24
2021/09/01 04:36:04;;;;;;;17.70;11.95;;;;;;;18.41;68.08;100099.78;4968683;28;20034;-24
2021/09/01 04:38:29;;;;;;;15.23;11.93;;;;;;;18.61;67.60;100122.44;4968447;28;20066;-24
2021/09/01 04:40:55;;;;;;;16.45;11.45;;;;;;;18.54;67.80;100103.03;4969095;28;20176;-24
2021/09/01 04:43:20;;;;;;;17.02;11.88;;;;;;;18.55;68.33;100120.81;4968416;28;20085;-24
2021/09/01 04:45:46;;;;;;;16.83;11.40;;;;;;;18.29;69.87;100126.22;4968677;28;20043;-24
2021/09/01 04:48:11;;;;;;;17.13;11.77;;;;;;;18.72;67.44;100096.25;4968400;28;20038;-24
2021/09/01 04:50:37;;;;;;;16.85;10.73;;;;;;;18.91;66.56;100104.63;4968328;28;20026;-24
2021/09/01 04:53:02;;;;;;;15.18;10.88;;;;;;;19.16;65.57;100115.38;4968196;28;20042;-24
2021/09/01 04:55:28;;;;;;;16.90;11.40;;;;;;;19.75;63.64;100130.03;4968278;28;20070;-24
2021/09/01 04:57:53;;;;;;;16.02;11.73;;;;;;;19.68;64.22;100119.50;4968174;28;20023;-24
2021/09/01 05:00:19;;;;;;;15.10;10.50;;;;;;;20.17;62.48;100126.03;4967903;28;20525;-24
2021/09/01 05:02:44;;;;;;;15.38;10.20;;;;;;;20.35;61.37;100124.56;4968441;28;20035;-24
2021/09/01 05:05:10;;;;;;;16.17;11.20;;;;;;;20.41;61.37;100126.13;4970521;28;20038;-24
2021/09/01 05:07:35;;;;;;;16.42;10.43;;;;;;;20.45;59.88;100120.94;4971849;28;20061;-24
2021/09/01 05:10:01;;;;;;;16.60;10.15;;;;;;;20.50;60.03;100122.81;4972086;28;20034;-24
2021/09/01 05:12:27;;;;;;;17.23;10.52;;;;;;;20.71;60.03;100126.97;4972204;28;20031;-24
2021/09/01 05:14:53;;;;;;;16.30;10.30;;;;;;;20.71;59.66;100121.56;4971995;28;20030;-24
2021/09/01 05:17:19;;;;;;;13.07;9.45;;;;;;;20.85;59.31;100119.00;4972482;28;20142;-24
2021/09/01 05:19:45;;;;;;;13.90;9.60;;;;;;;20.82;58.92;100112.25;4971898;28;20085;-24
2021/09/01 05:22:11;;;;;;;15.25;10.50;;;;;;;20.92;58.65;100118.66;4971512;28;20031;-24
2021/09/01 05:25:01;;;;;;;44.72;13.80;;;;;;;20.89;58.57;100108.41;4970393;28;20427;-24
2021/09/01 05:27:28;;;;;;;16.25;9.65;;;;;;;21.15;58.31;100117.88;4971443;28;20411;-24
2021/09/01 05:29:53;;;;;;;14.30;9.73;;;;;;;21.16;57.42;100092.34;4970167;28;20038;-24
2021/09/01 05:32:23;;;;;;;13.25;9.55;;;;;;;20.93;57.01;100085.03;4971462;28;20030;-24
2021/09/01 05:34:50;;;;;;;15.45;8.85;;;;;;;21.24;54.98;100097.16;4971965;28;20079;-24
2021/09/01 05:37:16;;;;;;;12.70;9.50;;;;;;;21.44;55.24;100092.63;4970531;28;20038;-24
2021/09/01 05:39:47;;;;;;;13.75;8.57;;;;;;;21.28;53.69;100081.91;4969813;28;20023;-25
2021/09/01 05:42:16;;;;;;;14.00;8.80;;;;;;;21.07;53.83;100088.69;4971250;28;20046;-25
2021/09/01 05:44:42;;;;;;;14.98;9.45;;;;;;;21.14;52.96;100093.75;4971237;28;20030;-24
2021/09/01 05:47:11;;;;;;;15.40;8.60;;;;;;;21.38;53.74;100093.75;4971356;28;20656;-24
2021/09/01 05:49:37;;;;;;;15.68;8.68;;;;;;;21.54;54.47;100097.13;4971177;28;20027;-24
2021/09/01 05:52:04;;;;;;;14.48;9.07;;;;;;;21.82;55.68;100087.22;4970950;28;20038;-24
2021/09/01 05:54:29;;;;;;;13.30;9.43;;;;;;;22.20;53.98;100088.00;4971216;28;20019;-24
2021/09/01 05:56:58;;;;;;;16.77;8.77;;;;;;;22.35;53.58;100089.72;4971195;28;20418;-24
2021/09/01 05:59:24;;;;;;;14.82;9.82;;;;;;;22.63;52.63;100089.78;4970181;28;20027;-24
2021/09/01 06:01:53;;;;;;;12.05;8.45;;;;;;;22.26;51.11;100092.28;4969705;28;20031;-25
2021/09/01 06:04:19;;;;;;;17.00;9.35;;;;;;;22.10;52.95;100092.78;4969496;28;20039;-24
2021/09/01 06:06:45;;;;;;;11.50;7.75;;;;;;;22.72;53.25;100092.59;4969729;28;20097;-24
2021/09/01 06:09:11;;;;;;;12.07;7.68;;;;;;;22.93;52.03;100087.63;4953651;28;20070;-24
2021/09/01 06:11:37;;;;;;;15.75;8.13;;;;;;;22.79;50.24;100072.06;4969867;28;20724;-24
2021/09/01 06:14:02;;;;;;;20.58;10.23;;;;;;;23.04;51.12;100083.59;4969421;28;20482;-24
2021/09/01 06:16:28;;;;;;;15.65;8.50;;;;;;;23.00;48.04;100085.28;4970996;28;20035;-24
2021/09/01 06:18:53;;;;;;;8.38;6.13;;;;;;;22.75;48.39;100081.13;4970727;28;20037;-24
2021/09/01 06:21:19;;;;;;;12.43;6.60;;;;;;;22.72;49.11;100090.72;4970712;28;20031;-24
2021/09/01 06:23:45;;;;;;;12.43;7.60;;;;;;;22.72;48.95;100092.59;4969230;28;20046;-24
2021/09/01 06:26:11;;;;;;;11.80;7.15;;;;;;;22.89;49.25;100081.16;4970445;28;20031;-24
2021/09/01 06:28:37;;;;;;;13.75;7.28;;;;;;;22.79;48.52;100071.28;4969139;28;20499;-24
2021/09/01 06:31:03;;;;;;;12.45;6.97;;;;;;;23.21;47.54;100083.81;4969261;28;20035;-24
2021/09/01 06:33:29;;;;;;;9.45;5.93;;;;;;;22.75;47.05;100073.78;4969543;28;20047;-24
2021/09/01 06:35:55;;;;;;;8.65;5.22;;;;;;;22.38;47.76;100094.53;4970430;28;20475;-24
2021/09/01 06:38:20;;;;;;;10.43;5.43;;;;;;;22.33;48.88;100089.19;4970044;28;20035;-24
2021/09/01 06:40:45;;;;;;;11.25;5.40;;;;;;;22.40;48.20;100081.47;4970151;28;20395;-24
2021/09/01 06:43:12;;;;;;;10.90;5.85;;;;;;;22.70;46.03;100095.63;4970355;28;20066;-24
2021/09/01 06:45:40;;;;;;;6.47;4.22;;;;;;;22.92;46.66;100086.78;4969988;28;20027;-24
2021/09/01 06:48:05;;;;;;;8.48;4.10;;;;;;;22.92;45.23;100089.50;4970018;28;20054;-24
2021/09/01 06:50:31;;;;;;;9.50;4.57;;;;;;;22.95;45.87;100090.84;4970104;28;20031;-24
2021/09/01 06:52:56;;;;;;;8.52;4.70;;;;;;;23.01;45.57;100090.47;4970073;28;20109;-24
2021/09/01 06:55:22;;;;;;;6.82;4.20;;;;;;;22.96;45.05;100078.84;4970463;28;20031;-24
2021/09/01 06:57:47;;;;;;;7.47;4.65;;;;;;;23.18;45.32;100084.41;4969151;28;20066;-24
2021/09/01 07:00:16;;;;;;;8.13;4.72;;;;;;;23.28;44.40;100077.97;4969935;28;20027;-24
2021/09/01 07:02:42;;;;;;;7.05;4.05;;;;;;;23.14;44.67;100088.84;4970103;28;20045;-24
2021/09/01 07:05:08;;;;;;;7.05;3.95;;;;;;;23.11;44.41;100081.31;4969978;28;20026;-24
2021/09/01 07:07:34;;;;;;;7.43;4.53;;;;;;;23.49;43.99;100077.53;4968426;28;20085;-24
2021/09/01 07:09:59;;;;;;;8.13;4.40;;;;;;;23.49;44.19;100078.34;4969484;28;20027;-24
2021/09/01 07:12:27;;;;;;;5.85;3.55;;;;;;;23.51;42.83;100092.44;4968381;28;20038;-24
2021/09/01 07:14:52;;;;;;;5.30;3.40;;;;;;;23.42;42.04;100100.53;4969503;28;20034;-23
2021/09/01 07:17:18;;;;;;;6.90;3.78;;;;;;;23.41;42.39;100103.53;4969926;28;20073;-24
2021/09/01 07:19:43;;;;;;;7.47;3.90;;;;;;;23.65;42.61;100101.41;4969474;28;20483;-24
2021/09/01 07:22:09;;;;;;;7.25;3.58;;;;;;;23.70;42.75;100100.50;4969241;28;20038;-24
2021/09/01 07:24:34;;;;;;;7.10;4.10;;;;;;;23.78;42.52;100104.41;4969237;28;20030;-24
2021/09/01 07:27:00;;;;;;;10.45;3.90;;;;;;;23.81;42.57;100106.56;4968838;28;20404;-24
2021/09/01 07:29:25;;;;;;;7.43;3.80;;;;;;;23.94;43.02;100102.97;4969057;28;20034;-24
2021/09/01 07:31:51;;;;;;;6.25;3.90;;;;;;;23.97;42.88;100099.66;4969369;28;20110;-24
2021/09/01 07:34:16;;;;;;;5.70;3.88;;;;;;;24.06;42.72;100097.78;4967774;28;20031;-24
2021/09/01 07:36:42;;;;;;;8.38;3.95;;;;;;;24.26;41.96;100101.94;4969237;28;20077;-24
2021/09/01 07:39:07;;;;;;;5.75;3.70;;;;;;;24.70;41.93;100102.22;4969413;28;20039;-24
2021/09/01 07:41:33;;;;;;;8.68;4.38;;;;;;;24.46;41.82;100100.63;4969604;28;20042;-24
2021/09/01 07:43:59;;;;;;;8.25;3.75;;;;;;;24.50;41.43;100103.59;4969148;28;20039;-23
2021/09/01 07:46:24;;;;;;;6.95;3.80;;;;;;;24.30;41.98;100085.78;4969112;28;20062;-24
2021/09/01 07:48:50;;;;;;;5.93;4.05;;;;;;;24.50;42.15;100091.84;4968921;28;20042;-24
2021/09/01 07:51:15;;;;;;;8.77;4.88;;;;;;;24.46;42.60;100089.75;4969169;28;20497;-24
2021/09/01 07:53:41;;;;;;;6.05;4.10;;;;;;;24.69;43.18;100081.56;4968960;28;20035;-24
2021/09/01 07:56:07;;;;;;;10.50;4.25;;;;;;;24.83;42.87;100093.16;4968614;28;20038;-24
2021/09/01 07:58:33;;;;;;;11.20;4.88;;;;;;;24.71;43.18;100079.31;4968857;28;20114;-24
2021/09/01 08:01:00;;;;;;;7.65;4.20;;;;;;;24.77;42.50;100061.69;4968821;28;20042;-24
2021/09/01 08:03:25;;;;;;;6.32;4.13;;;;;;;25.20;41.60;100074.69;4968833;28;20023;-24
2021/09/01 08:05:51;;;;;;;7.00;3.65;;;;;;;25.15;42.56;100077.59;4968640;28;20037;-24
2021/09/01 08:08:16;;;;;;;7.03;3.78;;;;;;;25.10;41.39;100074.97;4968535;28;20026;-24
2021/09/01 08:10:42;;;;;;;10.45;5.18;;;;;;;25.42;41.71;100070.28;4968639;28;20546;-24
2021/09/01 08:13:07;;;;;;;11.10;6.45;;;;;;;25.42;40.96;100065.63;4968662;28;20054;-24
2021/09/01 08:15:33;;;;;;;8.52;4.85;;;;;;;25.44;40.98;100068.84;4968718;28;20038;-23
2021/09/01 08:17:58;;;;;;;11.18;5.32;;;;;;;25.66;41.08;100056.16;4968820;28;20062;-23
2021/09/01 08:20:24;;;;;;;14.23;6.32;;;;;;;25.74;40.93;100057.31;4968602;28;20078;-24
2021/09/01 08:22:50;;;;;;;6.97;4.20;;;;;;;25.74;40.52;100058.09;4967313;28;20027;-23
2021/09/01 08:25:15;;;;;;;6.35;3.85;;;;;;;25.79;41.11;100057.16;4968764;28;20053;-24
2021/09/01 08:27:44;;;;;;;5.78;3.92;;;;;;;25.85;40.03;100055.88;4968344;28;20109;-23
2021/09/01 08:30:10;;;;;;;12.65;6.55;;;;;;;25.89;39.23;100067.75;4967241;28;20138;-24
2021/09/01 08:32:36;;;;;;;9.15;4.72;;;;;;;25.88;39.94;100060.69;4968770;28;20031;-24
2021/09/01 08:35:02;;;;;;;6.57;3.60;;;;;;;26.03;39.19;100062.13;4968453;28;20136;-23
2021/09/01 08:37:27;;;;;;;10.55;6.10;;;;;;;25.77;39.72;100059.41;4968582;28;20062;-24
2021/09/01 08:39:53;;;;;;;9.80;4.15;;;;;;;25.75;39.48;100061.66;4970577;28;20471;-23
2021/09/01 08:42:18;;;;;;;6.10;4.63;;;;;;;25.93;39.59;100054.28;4972111;28;20104;-24
2021/09/01 08:44:44;;;;;;;6.85;3.60;;;;;;;26.33;38.98;100054.06;4955123;28;20034;-23
2021/09/01 08:47:09;;;;;;;7.07;4.35;;;;;;;26.37;38.80;100055.03;4972546;28;20062;-24
2021/09/01 08:49:35;;;;;;;7.85;4.50;;;;;;;26.34;38.67;100050.22;4972216;28;20065;-23
2021/09/01 08:52:01;;;;;;;6.57;4.10;;;;;;;26.63;37.50;100053.06;4972315;28;20473;-24
2021/09/01 08:54:26;;;;;;;5.90;4.20;;;;;;;26.73;38.22;100060.09;4972399;28;20039;-24
2021/09/01 08:56:51;;;;;;;6.07;3.70;;;;;;;26.49;37.51;100046.16;4972154;28;20526;-24
2021/09/01 08:59:17;;;;;;;6.10;3.90;;;;;;;26.63;37.74;100052.25;4972207;28;20085;-23
2021/09/01 09:01:50;;;;;;;6.88;4.20;;;;;;;27.12;37.08;100052.69;4971218;28;20440;-23
2021/09/01 09:04:18;;;;;;;7.72;3.90;;;;;;;26.73;36.28;100054.63;4971943;28;20392;-24
2021/09/01 09:06:57;;;;;;;7.90;4.35;;;;;;;27.16;36.33;100044.63;4971978;28;20042;-24
2021/09/01 09:09:35;;;;;;;6.07;3.85;;;;;;;27.34;36.70;100037.09;4972073;28;20031;-24
2021/09/01 09:12:02;;;;;;;7.78;4.32;;;;;;;27.49;35.67;100050.22;4971965;28;20113;-24
2021/09/01 09:14:46;;;;;;;7.63;3.95;;;;;;;27.79;35.74;100030.97;4971928;28;20027;-24
2021/09/01 09:17:16;;;;;;;5.30;3.50;;;;;;;27.83;34.26;100021.75;4971879;28;20046;-24
2021/09/01 09:19:50;;;;;;;5.78;3.47;;;;;;;27.70;33.40;100022.03;4971805;28;20031;-24
2021/09/01 09:22:22;;;;;;;5.07;2.88;;;;;;;27.54;32.48;100006.19;4971564;28;20035;-24
2021/09/01 09:25:09;;;;;;;5.80;3.22;;;;;;;27.98;31.49;100017.59;4971661;28;20031;-24
2021/09/01 09:27:41;;;;;;;4.15;2.83;;;;;;;28.18;30.80;100005.00;4971917;28;20526;-24
2021/09/01 09:30:21;;;;;;;4.70;3.00;;;;;;;28.42;30.72;100014.41;4971372;28;20049;-24
2021/09/01 09:32:55;;;;;;;4.72;2.65;;;;;;;29.09;32.25;100012.28;4971578;28;20117;-24
2021/09/01 09:35:21;;;;;;;5.72;2.70;;;;;;;28.58;30.58;99996.16;4971444;28;20031;-24
2021/09/01 09:38:07;;;;;;;5.40;2.97;;;;;;;28.57;30.72;99991.03;4971680;28;20049;-24
2021/09/01 09:40:32;;;;;;;5.28;2.80;;;;;;;28.81;30.19;99991.03;4971100;28;20185;-24
2021/09/01 09:43:12;;;;;;;4.90;2.88;;;;;;;28.59;29.64;99986.81;4971604;28;20163;-24
2021/09/01 09:45:37;;;;;;;6.72;3.20;;;;;;;28.88;30.63;99993.19;4971447;28;20038;-23
2021/09/01 09:48:03;;;;;;;6.28;3.03;;;;;;;28.10;31.12;99967.50;4971055;28;20031;-24
2021/09/01 09:50:28;;;;;;;4.18;2.90;;;;;;;28.98;30.46;99981.75;4970871;28;20030;-24
2021/09/01 09:52:54;;;;;;;4.97;2.85;;;;;;;29.34;30.11;99968.31;4971346;28;20050;-24
2021/09/01 09:55:21;;;;;;;5.68;3.25;;;;;;;28.80;31.24;99972.16;4970953;28;20414;-24
2021/09/01 09:57:51;;;;;;;6.78;3.42;;;;;;;29.14;31.39;99973.63;4971219;28;20043;-23
2021/09/01 10:00:20;;;;;;;4.95;3.42;;;;;;;29.06;29.77;99966.31;4971018;28;20031;-24
2021/09/01 10:02:46;;;;;;;4.68;2.92;;;;;;;29.23;30.60;99962.50;4971253;28;20031;-24
2021/09/01 10:05:13;;;;;;;4.80;3.30;;;;;;;29.18;28.76;99968.25;4971020;28;20034;-24
2021/09/01 10:07:38;;;;;;;6.53;3.45;;;;;;;29.16;30.08;99954.88;4971036;28;20502;-24
2021/09/01 10:10:04;;;;;;;7.93;3.92;;;;;;;29.18;28.81;99951.78;4970755;28;20090;-24
2021/09/01 10:12:30;;;;;;;5.78;3.78;;;;;;;29.58;29.04;99932.50;4969127;28;20034;-24
2021/09/01 10:14:56;;;;;;;5.07;3.25;;;;;;;30.05;27.08;99950.28;4969637;28;20026;-24
2021/09/01 10:17:22;;;;;;;5.20;3.17;;;;;;;29.69;28.53;99945.75;4969796;28;20033;-24
2021/09/01 10:19:48;;;;;;;5.82;3.67;;;;;;;29.05;29.80;99937.22;4971014;28;20030;-24
2021/09/01 10:22:14;;;;;;;8.18;3.33;;;;;;;29.45;29.60;99939.22;4953315;28;20423;-24
2021/09/01 10:24:42;;;;;;;6.28;3.53;;;;;;;29.50;29.50;99922.47;4953413;28;20050;-24
2021/09/01 10:27:26;;;;;;;5.63;3.25;;;;;;;29.90;28.03;99931.81;4970435;28;20129;-24
2021/09/01 10:30:05;;;;;;;5.63;3.30;;;;;;;30.22;28.16;99936.19;4970809;28;20023;-24
2021/09/01 10:32:43;;;;;;;4.75;2.95;;;;;;;29.99;27.62;99927.75;4969460;28;20038;-24
2021/09/01 10:35:20;;;;;;;6.60;3.40;;;;;;;30.29;28.73;99927.31;4970442;28;20035;-24
2021/09/01 10:37:46;;;;;;;;;;;;;;;29.91;27.56;99922.41;4970764;28;20034;-24
2021/09/01 10:40:12;;;;;;;5.53;3.20;;;;;;;29.96;27.78;99914.72;4970196;28;19913;-24
2021/09/01 10:42:42;;;;;;;5.82;3.10;;;;;;;29.92;26.73;99902.03;4970219;28;20030;-24
2021/09/01 10:45:18;;;;;;;5.22;3.03;;;;;;;29.95;26.97;99901.31;4970201;28;20066;-24
2021/09/01 10:47:49;;;;;;;5.45;2.72;;;;;;;30.03;28.05;99909.38;4969220;28;20065;-24
2021/09/01 10:50:15;;;;;;;4.63;2.70;;;;;;;30.47;27.52;99907.72;4969945;28;20040;-24
2021/09/01 10:53:23;;;;;;;5.75;3.40;;;;;;;30.87;28.26;99903.91;4970331;28;20035;-24
2021/09/01 10:56:15;;;;;;;5.53;2.90;;;;;;;30.60;26.88;99899.00;4953993;28;20592;-24
2021/09/01 10:58:42;;;;;;;5.28;2.65;;;;;;;31.06;27.03;99881.94;4963008;28;20042;-24
2021/09/01 11:01:07;;;;;;;5.68;2.63;;;;;;;31.30;25.52;99899.31;4969953;28;20031;-24
2021/09/01 11:03:35;;;;;;;9.45;3.10;;;;;;;30.44;26.74;99879.78;4969120;28;20034;-24
2021/09/01 11:06:19;;;;;;;5.05;2.50;;;;;;;31.02;25.69;99886.56;4969589;28;20039;-24
2021/09/01 11:09:05;;;;;;;5.90;2.67;;;;;;;30.48;25.69;99895.56;4969888;28;20094;-24
2021/09/01 11:11:55;;;;;;;4.32;2.53;;;;;;;31.17;25.61;99877.44;4969959;28;20034;-24
2021/09/01 11:14:30;;;;;;;3.83;2.03;;;;;;;31.58;24.96;99882.56;4969606;28;20046;-24
2021/09/01 11:16:57;;;;;;;3.72;2.53;;;;;;;31.22;24.86;99851.53;4968601;28;20035;-24
2021/09/01 11:19:22;;;;;;;5.20;2.53;;;;;;;31.03;25.03;99849.59;4969572;28;20814;-24